Time;durP1;ratioP1;P1;durP2;ratioP2;P2;SDS_P1;SDS_P2;PMS_P1;PMS_P2;Temp;Humidity;BMP_temperature;BMP_pressure;BME280_temperature;BME280_humidity;BME280_pressure;Samples;Min_cycle;Max_cycle;Signal;HPM_P1;HPM_P2
2021/12/11 00:00:48;;;;;;;20.17;16.70;;;0.90;99.90;;;;;;5095240;28;20215;-90
2021/12/11 00:03:21;;;;;;;16.13;14.27;;;1.00;99.90;;;;;;5095450;28;20215;-90
2021/12/11 00:05:54;;;;;;;17.53;15.13;;;1.00;99.90;;;;;;5095853;28;20232;-90
2021/12/11 00:08:24;;;;;;;23.50;17.00;;;0.90;99.90;;;;;;5095794;28;20228;-90
2021/12/11 00:10:59;;;;;;;18.30;15.27;;;1.00;99.90;;;;;;5095220;28;20208;-90
2021/12/11 00:13:30;;;;;;;18.47;14.87;;;1.00;99.90;;;;;;5094623;28;20207;-90
2021/12/11 00:16:00;;;;;;;16.47;14.63;;;1.00;99.90;;;;;;5095244;28;20216;-80
2021/12/11 00:18:30;;;;;;;17.17;14.10;;;0.90;99.90;;;;;;5095449;28;20235;-80
2021/12/11 00:21:02;;;;;;;18.23;14.57;;;1.00;99.90;;;;;;5095183;28;20212;-90
2021/12/11 00:23:34;;;;;;;17.03;13.37;;;1.00;99.90;;;;;;5094761;28;20291;-90
2021/12/11 00:26:06;;;;;;;14.57;12.37;;;1.00;99.90;;;;;;5095377;28;20240;-90
2021/12/11 00:28:44;;;;;;;16.33;14.53;;;0.90;99.90;;;;;;5095571;28;20288;-90
2021/12/11 00:31:14;;;;;;;16.70;13.60;;;0.90;99.90;;;;;;5095050;28;20254;-90
2021/12/11 00:33:43;;;;;;;18.57;13.60;;;0.90;99.90;;;;;;5095099;28;20204;-90
2021/12/11 00:36:15;;;;;;;18.50;13.57;;;0.90;99.90;;;;;;5094886;28;20224;-80
2021/12/11 00:38:47;;;;;;;22.43;14.17;;;0.90;99.90;;;;;;5094902;28;20200;-90
2021/12/11 00:41:20;;;;;;;16.83;11.83;;;0.90;99.90;;;;;;5095041;28;20296;-90
2021/12/11 00:43:50;;;;;;;19.53;14.43;;;0.90;99.90;;;;;;5095439;28;20200;-90
2021/12/11 00:46:26;;;;;;;20.50;14.23;;;0.90;99.90;;;;;;5101947;28;20227;-90
2021/12/11 00:48:56;;;;;;;14.20;12.73;;;0.90;99.90;;;;;;5117321;28;20188;-90
2021/12/11 00:51:24;;;;;;;17.57;13.40;;;0.90;99.90;;;;;;5096578;28;20271;-90
2021/12/11 00:53:56;;;;;;;21.17;15.37;;;1.00;99.90;;;;;;5098630;28;20200;-90
2021/12/11 00:56:31;;;;;;;18.63;13.70;;;0.90;99.90;;;;;;5102355;28;20236;-90
2021/12/11 00:59:04;;;;;;;15.73;12.90;;;1.00;99.90;;;;;;5099956;28;20208;-90
2021/12/11 01:01:35;;;;;;;15.50;13.23;;;1.00;99.90;;;;;;5095297;28;20253;-90
2021/12/11 01:04:08;;;;;;;18.03;14.27;;;1.00;99.90;;;;;;5094920;28;20207;-90
2021/12/11 01:06:39;;;;;;;21.27;15.63;;;1.00;99.90;;;;;;5094233;28;20296;-90
2021/12/11 01:09:12;;;;;;;28.40;16.63;;;1.00;99.90;;;;;;5094027;28;20292;-90
2021/12/11 01:11:47;;;;;;;20.40;14.57;;;1.00;99.90;;;;;;5094640;28;20201;-91
2021/12/11 01:14:24;;;;;;;21.77;13.93;;;0.90;99.90;;;;;;5094589;28;20295;-90
2021/12/11 01:16:59;;;;;;;16.53;14.67;;;1.00;99.90;;;;;;5094382;28;20223;-90
2021/12/11 01:19:28;;;;;;;17.33;14.37;;;0.90;99.90;;;;;;5093595;28;20284;-90
2021/12/11 01:21:59;;;;;;;19.17;14.10;;;1.00;99.90;;;;;;5093944;28;20257;-80
2021/12/11 01:24:42;;;;;;;22.53;15.17;;;1.00;99.90;;;;;;5093986;28;20205;-80
2021/12/11 01:27:14;;;;;;;20.00;14.43;;;1.00;99.90;;;;;;5094143;28;20244;-80
2021/12/11 01:29:44;;;;;;;30.27;16.93;;;1.00;99.90;;;;;;5093393;28;20239;-80
2021/12/11 01:32:14;;;;;;;17.83;14.50;;;1.00;99.90;;;;;;5093870;28;20266;-80
2021/12/11 01:34:44;;;;;;;20.33;16.37;;;1.00;99.90;;;;;;5093221;28;20244;-80
2021/12/11 01:37:14;;;;;;;18.33;15.17;;;1.00;99.90;;;;;;5093786;28;20244;-80
2021/12/11 01:39:43;;;;;;;21.57;16.20;;;1.10;99.90;;;;;;5093094;28;20295;-80
2021/12/11 01:42:16;;;;;;;21.23;15.50;;;1.00;99.90;;;;;;5093208;28;20204;-80
2021/12/11 01:44:46;;;;;;;20.63;16.83;;;1.00;99.90;;;;;;5093825;28;20231;-80
2021/12/11 01:47:18;;;;;;;18.87;15.10;;;1.00;99.90;;;;;;5093146;28;20250;-80
2021/12/11 01:49:50;;;;;;;22.00;16.80;;;1.00;99.90;;;;;;5093211;28;20212;-80
2021/12/11 01:52:34;;;;;;;24.50;16.67;;;1.00;99.90;;;;;;5093557;28;20239;-80
2021/12/11 01:55:09;;;;;;;35.03;18.90;;;1.00;99.90;;;;;;5093012;28;20324;-80
2021/12/11 01:57:47;;;;;;;25.43;16.93;;;1.10;99.90;;;;;;5093665;28;20298;-80
2021/12/11 02:00:23;;;;;;;24.03;16.37;;;1.00;99.90;;;;;;5092826;28;20242;-80
2021/12/11 02:02:55;;;;;;;23.80;17.67;;;1.00;99.90;;;;;;5093109;28;20208;-80
2021/12/11 02:05:26;;;;;;;19.67;16.13;;;1.00;99.90;;;;;;5093711;28;20222;-80
2021/12/11 02:08:06;;;;;;;26.83;17.67;;;1.00;99.90;;;;;;5092859;28;20299;-82
2021/12/11 02:10:38;;;;;;;19.53;15.63;;;1.00;99.90;;;;;;5092552;28;20207;-82
2021/12/11 02:13:11;;;;;;;26.97;18.43;;;1.00;99.90;;;;;;5092391;28;20255;-82
2021/12/11 02:15:47;;;;;;;20.97;15.77;;;1.00;99.90;;;;;;5092755;28;20228;-82
2021/12/11 02:18:20;;;;;;;26.00;17.60;;;1.00;99.90;;;;;;5093485;28;20212;-91
2021/12/11 02:20:53;;;;;;;22.93;17.90;;;1.00;99.90;;;;;;5092569;28;20291;-82
2021/12/11 02:23:25;;;;;;;20.73;17.13;;;0.90;99.90;;;;;;5093056;28;20232;-82
2021/12/11 02:26:00;;;;;;;24.83;18.13;;;1.00;99.90;;;;;;5093471;28;20319;-92
2021/12/11 02:28:34;;;;;;;24.20;17.50;;;1.00;99.90;;;;;;5105375;28;20211;-82
2021/12/11 02:31:07;;;;;;;22.13;16.97;;;1.00;99.90;;;;;;5092919;28;20211;-82
2021/12/11 02:33:40;;;;;;;29.67;17.93;;;0.90;99.90;;;;;;5093034;28;20212;-82
2021/12/11 02:36:12;;;;;;;24.43;18.00;;;1.00;99.90;;;;;;5092593;28;20258;-82
2021/12/11 02:38:50;;;;;;;23.83;17.13;;;0.90;99.90;;;;;;5092777;28;20261;-82
2021/12/11 02:41:26;;;;;;;27.20;18.83;;;0.90;99.90;;;;;;5092579;28;20267;-82
2021/12/11 02:43:57;;;;;;;19.33;15.93;;;0.90;99.90;;;;;;5092908;28;20288;-82
2021/12/11 02:46:32;;;;;;;24.83;18.33;;;0.90;99.90;;;;;;5092441;28;20307;-82
2021/12/11 02:49:06;;;;;;;29.23;17.47;;;0.90;99.90;;;;;;5092393;28;20260;-82
2021/12/11 02:51:38;;;;;;;24.17;17.23;;;0.90;99.90;;;;;;5093124;28;20213;-82
2021/12/11 02:54:11;;;;;;;23.10;17.03;;;0.90;99.90;;;;;;5092517;28;20208;-82
2021/12/11 02:56:43;;;;;;;22.40;16.67;;;0.90;99.90;;;;;;5092511;28;20274;-82
2021/12/11 02:59:15;;;;;;;25.30;17.77;;;1.00;99.90;;;;;;5092365;28;20224;-82
2021/12/11 03:01:50;;;;;;;21.77;16.70;;;1.00;99.90;;;;;;5092674;28;20209;-82
2021/12/11 03:04:25;;;;;;;25.20;16.63;;;0.90;99.90;;;;;;5092397;28;20206;-82
2021/12/11 03:06:55;;;;;;;24.10;15.97;;;0.90;99.90;;;;;;5092112;28;20228;-82
2021/12/11 03:09:28;;;;;;;23.13;15.83;;;0.90;99.90;;;;;;5092360;28;20243;-82
2021/12/11 03:11:59;;;;;;;23.77;17.37;;;0.90;99.90;;;;;;5091432;28;20308;-82
2021/12/11 03:14:28;;;;;;;25.90;17.27;;;0.90;99.90;;;;;;5092714;28;20204;-82
2021/12/11 03:16:58;;;;;;;21.50;16.47;;;0.90;99.90;;;;;;5092086;28;20307;-82
2021/12/11 03:19:30;;;;;;;23.23;16.80;;;0.90;99.90;;;;;;5091885;28;20208;-82
2021/12/11 03:22:01;;;;;;;19.90;14.73;;;1.00;99.90;;;;;;5092746;28;20308;-82
2021/12/11 03:24:33;;;;;;;21.63;16.90;;;0.90;99.90;;;;;;5092583;28;20232;-82
2021/12/11 03:27:02;;;;;;;24.60;18.10;;;0.90;99.90;;;;;;5092244;28;20307;-92
2021/12/11 03:29:31;;;;;;;23.47;17.00;;;0.90;99.90;;;;;;5092244;28;20228;-92
2021/12/11 03:32:00;;;;;;;27.67;18.40;;;0.90;99.90;;;;;;5092378;28;20293;-92
2021/12/11 03:34:31;;;;;;;28.03;18.13;;;0.90;99.90;;;;;;5092431;28;20204;-92
2021/12/11 03:37:01;;;;;;;27.10;18.80;;;0.90;99.90;;;;;;5092113;28;20274;-82
2021/12/11 03:39:37;;;;;;;28.20;17.67;;;0.90;99.90;;;;;;5091529;28;20283;-82
2021/12/11 03:42:08;;;;;;;21.53;16.57;;;0.90;99.90;;;;;;5091886;28;20290;-82
2021/12/11 03:44:37;;;;;;;21.07;16.60;;;0.90;99.90;;;;;;5091869;28;20215;-82
2021/12/11 03:47:09;;;;;;;30.07;18.93;;;0.90;99.90;;;;;;5092235;28;20251;-92
2021/12/11 03:49:38;;;;;;;24.03;17.03;;;0.90;99.90;;;;;;5091967;28;20268;-92
2021/12/11 03:52:09;;;;;;;24.10;16.87;;;1.00;99.90;;;;;;5092818;28;20208;-92
2021/12/11 03:54:45;;;;;;;20.67;15.93;;;1.00;99.90;;;;;;5092729;28;20239;-92
2021/12/11 03:57:17;;;;;;;25.03;18.00;;;0.90;99.90;;;;;;5091691;28;20327;-82
2021/12/11 03:59:48;;;;;;;24.90;17.80;;;1.00;99.90;;;;;;5093775;28;20291;-82
2021/12/11 04:02:20;;;;;;;22.23;16.87;;;0.90;99.90;;;;;;5103735;28;20232;-92
2021/12/11 04:04:53;;;;;;;24.80;17.27;;;1.00;99.90;;;;;;5097975;28;20205;-92
2021/12/11 04:07:25;;;;;;;23.73;17.63;;;1.00;99.90;;;;;;5095336;28;20228;-92
2021/12/11 04:09:55;;;;;;;22.07;16.30;;;1.00;99.90;;;;;;5094814;28;20204;-82
2021/12/11 04:12:26;;;;;;;30.57;18.70;;;1.00;99.90;;;;;;5095441;28;20220;-82
2021/12/11 04:14:57;;;;;;;34.77;18.67;;;1.00;99.90;;;;;;5095129;28;20208;-82
2021/12/11 04:17:29;;;;;;;28.83;17.50;;;1.00;99.90;;;;;;5096446;28;20258;-92
2021/12/11 04:20:01;;;;;;;25.13;17.97;;;1.00;99.90;;;;;;5094482;28;20267;-80
2021/12/11 04:22:30;;;;;;;30.67;18.67;;;1.00;99.90;;;;;;5095466;28;20200;-80
2021/12/11 04:25:00;;;;;;;26.80;17.37;;;1.00;99.90;;;;;;5095229;28;20208;-80
2021/12/11 04:27:29;;;;;;;23.20;16.87;;;0.90;99.90;;;;;;5094872;28;20240;-80
2021/12/11 04:29:57;;;;;;;22.50;17.63;;;0.90;99.90;;;;;;5094608;28;20283;-80
2021/12/11 04:32:29;;;;;;;25.70;16.27;;;0.90;99.90;;;;;;5095382;28;20246;-89
2021/12/11 04:34:57;;;;;;;27.87;18.40;;;0.90;99.90;;;;;;5094844;28;20232;-90
2021/12/11 04:37:30;;;;;;;23.23;17.17;;;1.00;99.90;;;;;;5094811;28;20228;-90
2021/12/11 04:40:08;;;;;;;26.47;18.33;;;1.00;99.90;;;;;;5094607;28;20219;-90
2021/12/11 04:42:49;;;;;;;28.40;18.37;;;1.10;99.90;;;;;;5095090;28;20258;-90
2021/12/11 04:45:21;;;;;;;22.40;16.07;;;1.00;99.90;;;;;;5095251;28;20268;-90
2021/12/11 04:47:54;;;;;;;26.63;17.53;;;1.00;99.90;;;;;;5095212;28;20243;-90
2021/12/11 04:50:31;;;;;;;26.70;18.47;;;1.10;99.90;;;;;;5094239;28;20334;-80
2021/12/11 04:53:03;;;;;;;29.17;19.07;;;1.00;99.90;;;;;;5094729;28;20230;-80
2021/12/11 04:55:52;;;;;;;24.13;18.13;;;1.00;99.90;;;;;;5094297;28;20232;-80
2021/12/11 04:58:44;;;;;;;27.27;18.43;;;1.00;99.90;;;;;;5094580;28;20287;-80
2021/12/11 05:01:31;;;;;;;22.87;16.80;;;1.00;99.90;;;;;;5094650;28;20207;-80
2021/12/11 05:06:59;;;;;;;24.50;17.03;;;1.00;99.90;;;;;;5090824;28;20306;-80
2021/12/11 05:09:36;;;;;;;22.23;17.63;;;1.00;99.90;;;;;;5093748;28;20212;-80
2021/12/11 05:12:15;;;;;;;24.90;17.13;;;1.10;99.90;;;;;;5092963;28;20278;-80
2021/12/11 05:14:44;;;;;;;27.50;18.10;;;1.10;99.90;;;;;;5093890;28;20295;-80
2021/12/11 05:17:14;;;;;;;28.97;17.53;;;1.10;99.90;;;;;;5093861;28;20303;-80
2021/12/11 05:19:45;;;;;;;26.67;17.90;;;1.00;99.90;;;;;;5093775;28;20204;-80
2021/12/11 05:22:14;;;;;;;25.80;18.97;;;1.10;99.90;;;;;;5094715;28;20256;-80
2021/12/11 05:24:45;;;;;;;27.77;19.30;;;1.10;99.90;;;;;;5093973;28;20264;-80
2021/12/11 05:27:16;;;;;;;26.67;17.97;;;1.10;99.90;;;;;;5093775;28;20307;-80
2021/12/11 05:29:45;;;;;;;27.07;19.67;;;1.10;99.90;;;;;;5093511;28;20291;-80
2021/12/11 05:32:17;;;;;;;26.07;17.80;;;1.10;99.90;;;;;;5093880;28;20288;-80
2021/12/11 05:34:46;;;;;;;26.03;18.97;;;1.10;99.90;;;;;;5093833;28;20362;-80
2021/12/11 05:37:15;;;;;;;25.50;17.57;;;1.10;99.90;;;;;;5093625;28;20240;-80
2021/12/11 05:39:44;;;;;;;20.67;16.97;;;1.00;99.90;;;;;;5093469;28;20209;-80
2021/12/11 05:42:12;;;;;;;21.57;17.37;;;1.00;99.90;;;;;;5093886;28;20228;-80
2021/12/11 05:44:43;;;;;;;21.77;17.67;;;1.00;99.90;;;;;;5093590;28;20283;-80
2021/12/11 05:47:12;;;;;;;22.43;17.97;;;1.00;99.90;;;;;;5093443;28;20307;-80
2021/12/11 05:49:44;;;;;;;23.90;18.80;;;1.10;99.90;;;;;;5093116;28;20276;-80
2021/12/11 05:52:13;;;;;;;21.30;17.53;;;1.10;99.90;;;;;;5093667;28;20250;-80
2021/12/11 05:54:47;;;;;;;21.97;17.17;;;1.10;99.90;;;;;;5094010;28;20238;-80
2021/12/11 05:57:18;;;;;;;25.73;17.43;;;1.10;99.90;;;;;;5092967;28;20287;-80
2021/12/11 05:59:54;;;;;;;28.80;19.07;;;1.10;99.90;;;;;;5092697;28;20268;-80
2021/12/11 06:02:27;;;;;;;22.07;17.63;;;1.10;99.90;;;;;;5093058;28;20216;-80
2021/12/11 06:04:59;;;;;;;23.83;18.03;;;1.10;99.90;;;;;;5093733;28;20208;-80
2021/12/11 06:07:30;;;;;;;28.37;17.20;;;1.10;99.90;;;;;;5093337;28;20228;-80
2021/12/11 06:10:02;;;;;;;22.37;18.07;;;1.10;99.90;;;;;;5092990;28;20299;-80
2021/12/11 06:12:32;;;;;;;25.03;18.47;;;1.10;99.90;;;;;;5091879;28;20283;-80
2021/12/11 06:15:02;;;;;;;26.83;19.27;;;1.10;99.90;;;;;;5093231;28;20234;-80
2021/12/11 06:17:33;;;;;;;22.67;17.17;;;1.20;99.90;;;;;;5092957;28;20220;-80
2021/12/11 06:20:04;;;;;;;25.17;19.03;;;1.20;99.90;;;;;;5092981;28;20255;-80
2021/12/11 06:22:36;;;;;;;20.13;16.80;;;1.20;99.90;;;;;;5092546;28;20287;-80
2021/12/11 06:25:09;;;;;;;22.13;18.73;;;1.20;99.90;;;;;;5092914;28;20340;-80
2021/12/11 06:27:38;;;;;;;26.40;18.00;;;1.20;99.90;;;;;;5093311;28;20303;-80
2021/12/11 06:30:13;;;;;;;22.43;17.53;;;1.20;99.90;;;;;;5092619;28;20218;-90
2021/12/11 06:32:43;;;;;;;26.03;19.33;;;1.30;99.90;;;;;;5092920;28;20212;-90
2021/12/11 06:35:16;;;;;;;23.63;18.57;;;1.30;99.90;;;;;;5092715;28;20238;-90
2021/12/11 06:37:45;;;;;;;23.67;17.77;;;1.30;99.90;;;;;;5093005;28;20251;-80
2021/12/11 06:40:14;;;;;;;23.80;19.40;;;1.30;99.90;;;;;;5092407;28;20307;-80
2021/12/11 06:42:43;;;;;;;25.87;18.47;;;1.30;99.90;;;;;;5092166;28;20208;-80
2021/12/11 06:45:14;;;;;;;24.00;18.97;;;1.30;99.90;;;;;;5092438;28;20230;-80
2021/12/11 06:47:42;;;;;;;23.77;17.33;;;1.40;99.90;;;;;;5093068;28;20219;-89
2021/12/11 06:50:13;;;;;;;25.83;18.70;;;1.40;99.90;;;;;;5092156;28;20250;-89
2021/12/11 06:52:41;;;;;;;30.03;19.53;;;1.40;99.90;;;;;;5093124;28;20251;-89
2021/12/11 06:55:13;;;;;;;29.83;19.47;;;1.50;99.90;;;;;;5092751;28;20216;-89
2021/12/11 06:57:41;;;;;;;21.67;17.57;;;1.40;99.90;;;;;;5093542;28;20288;-89
2021/12/11 07:00:14;;;;;;;29.33;20.57;;;1.40;99.90;;;;;;5097665;28;20205;-89
2021/12/11 07:02:42;;;;;;;27.90;20.03;;;1.50;99.90;;;;;;5096474;28;20231;-89
2021/12/11 07:05:12;;;;;;;23.25;17.90;;;1.50;99.90;;;;;;5092602;28;20246;-80
2021/12/11 07:07:42;;;;;;;26.83;19.10;;;1.60;99.90;;;;;;5092478;28;20296;-80
2021/12/11 07:10:14;;;;;;;29.30;20.57;;;1.60;99.90;;;;;;5092276;28;20204;-80
2021/12/11 07:12:45;;;;;;;25.58;19.65;;;1.60;99.90;;;;;;5092461;28;20276;-80
2021/12/11 07:15:18;;;;;;;32.47;18.97;;;1.60;99.90;;;;;;5092442;28;20283;-80
2021/12/11 07:17:46;;;;;;;31.00;20.20;;;1.60;99.90;;;;;;5092909;28;20280;-80
2021/12/11 07:20:16;;;;;;;26.00;20.03;;;1.60;99.90;;;;;;5091702;28;20215;-80
2021/12/11 07:22:48;;;;;;;27.57;19.00;;;1.60;99.90;;;;;;5092400;28;20227;-80
2021/12/11 07:25:21;;;;;;;25.47;20.43;;;1.60;99.90;;;;;;5091955;28;20291;-80
2021/12/11 07:27:50;;;;;;;26.80;19.40;;;1.70;99.90;;;;;;5092244;28;20208;-80
2021/12/11 07:30:21;;;;;;;24.43;18.23;;;1.70;99.90;;;;;;5091488;28;20204;-80
2021/12/11 07:32:52;;;;;;;24.87;19.67;;;1.70;99.90;;;;;;5092803;28;20200;-80
2021/12/11 07:35:21;;;;;;;25.27;18.77;;;1.70;99.90;;;;;;5095826;28;20230;-80
2021/12/11 07:37:51;;;;;;;21.80;17.27;;;1.80;99.90;;;;;;5096080;28;20208;-80
2021/12/11 07:40:21;;;;;;;25.17;19.20;;;1.80;99.90;;;;;;5095631;28;20296;-80
2021/12/11 07:42:54;;;;;;;23.30;17.40;;;1.90;99.90;;;;;;5095637;28;20222;-80
2021/12/11 07:45:25;;;;;;;25.70;18.57;;;1.90;99.90;;;;;;5095935;28;20205;-80
2021/12/11 07:47:55;;;;;;;19.77;15.80;;;1.90;99.90;;;;;;5096291;28;20231;-80
2021/12/11 07:50:25;;;;;;;21.90;18.13;;;1.90;99.90;;;;;;5095338;28;20209;-80
2021/12/11 07:52:54;;;;;;;23.23;17.53;;;1.90;99.90;;;;;;5095792;28;20231;-80
2021/12/11 07:55:23;;;;;;;21.43;16.97;;;1.90;99.90;;;;;;5095992;28;20232;-80
2021/12/11 07:57:52;;;;;;;26.63;19.50;;;2.00;99.90;;;;;;5096145;28;20215;-80
2021/12/11 08:00:23;;;;;;;18.00;15.77;;;2.00;99.90;;;;;;5095270;28;20260;-80
2021/12/11 08:02:54;;;;;;;50.00;19.07;;;2.00;99.90;;;;;;5095772;28;20204;-80
2021/12/11 08:05:23;;;;;;;22.63;17.27;;;2.00;99.90;;;;;;5095381;28;20292;-80
2021/12/11 08:07:52;;;;;;;20.83;17.00;;;2.00;99.90;;;;;;5096022;28;20283;-80
2021/12/11 08:10:24;;;;;;;21.83;17.73;;;2.00;99.90;;;;;;5094760;28;20296;-79
2021/12/11 08:12:52;;;;;;;23.13;15.17;;;2.00;99.90;;;;;;5094461;28;20272;-80
2021/12/11 08:15:21;;;;;;;27.97;18.13;;;2.00;99.90;;;;;;5095356;28;20208;-80
2021/12/11 08:17:54;;;;;;;23.23;19.10;;;2.00;99.90;;;;;;5095472;28;20212;-80
2021/12/11 08:20:25;;;;;;;22.83;18.27;;;2.00;99.90;;;;;;5095017;28;20261;-80
2021/12/11 08:22:55;;;;;;;22.23;17.02;;;2.00;99.90;;;;;;5095149;28;20292;-80
2021/12/11 08:25:26;;;;;;;23.80;18.17;;;2.10;99.90;;;;;;5095305;28;20289;-80
2021/12/11 08:27:56;;;;;;;26.20;17.63;;;2.00;99.90;;;;;;5095377;28;20208;-80
2021/12/11 08:30:26;;;;;;;27.87;17.67;;;2.10;99.90;;;;;;5095003;28;20279;-80
2021/12/11 08:32:56;;;;;;;31.40;17.57;;;2.10;99.90;;;;;;5094799;28;20234;-80
2021/12/11 08:35:25;;;;;;;22.43;16.83;;;2.10;99.90;;;;;;5094961;28;20291;-80
2021/12/11 08:37:54;;;;;;;23.80;17.07;;;2.10;99.90;;;;;;5095100;28;20204;-80
2021/12/11 08:40:27;;;;;;;25.07;19.23;;;2.10;99.90;;;;;;5094200;28;20307;-80
2021/12/11 08:42:58;;;;;;;21.17;16.98;;;2.10;99.90;;;;;;5094675;28;20320;-80
2021/12/11 08:45:43;;;;;;;26.08;18.40;;;2.10;99.90;;;;;;5093910;28;20232;-80
2021/12/11 08:48:16;;;;;;;27.70;18.83;;;2.10;99.90;;;;;;5094865;28;20269;-80
2021/12/11 08:50:46;;;;;;;23.73;18.00;;;2.10;99.90;;;;;;5094573;28;20268;-80
2021/12/11 08:53:15;;;;;;;27.37;18.93;;;2.10;99.90;;;;;;5094716;28;20228;-80
2021/12/11 08:55:48;;;;;;;26.73;18.07;;;2.10;99.90;;;;;;5094475;28;20315;-80
2021/12/11 08:58:19;;;;;;;23.25;17.27;;;2.10;99.90;;;;;;5094579;28;20210;-80
2021/12/11 09:00:51;;;;;;;27.07;20.03;;;2.10;99.90;;;;;;5094317;28;20192;-80
2021/12/11 09:03:26;;;;;;;22.40;18.07;;;2.10;99.90;;;;;;5094467;28;20219;-80
2021/12/11 09:06:00;;;;;;;29.97;19.03;;;2.00;99.90;;;;;;5094329;28;20251;-80
2021/12/11 09:08:36;;;;;;;30.00;19.50;;;2.10;99.90;;;;;;5094268;28;20204;-80
2021/12/11 09:11:10;;;;;;;24.20;16.90;;;2.00;99.90;;;;;;5094588;28;20198;-80
2021/12/11 09:13:43;;;;;;;22.33;18.57;;;2.00;99.90;;;;;;5093387;28;20273;-79
2021/12/11 09:16:16;;;;;;;23.80;18.70;;;2.10;99.90;;;;;;5094569;28;20233;-80
2021/12/11 09:18:54;;;;;;;23.00;17.23;;;2.10;99.90;;;;;;5094194;28;20287;-80
2021/12/11 09:21:26;;;;;;;23.20;17.77;;;2.10;99.90;;;;;;5094318;28;20243;-80
2021/12/11 09:24:04;;;;;;;26.00;18.20;;;2.10;99.90;;;;;;5094184;28;20239;-80
2021/12/11 09:26:39;;;;;;;28.77;20.47;;;2.10;99.90;;;;;;5093935;28;20332;-80
2021/12/11 09:29:12;;;;;;;25.87;18.67;;;2.10;99.90;;;;;;5093788;28;20283;-80
2021/12/11 09:31:46;;;;;;;24.67;18.17;;;2.10;99.90;;;;;;5093764;28;20200;-80
2021/12/11 09:34:20;;;;;;;24.63;17.87;;;2.10;99.90;;;;;;5094394;28;20208;-80
2021/12/11 09:36:54;;;;;;;26.83;18.37;;;2.10;99.90;;;;;;5093696;28;20232;-80
2021/12/11 09:39:32;;;;;;;23.13;17.83;;;2.10;99.90;;;;;;5092975;28;20310;-80
2021/12/11 09:42:00;;;;;;;28.93;18.57;;;2.20;99.90;;;;;;5093452;28;20204;-80
2021/12/11 09:44:33;;;;;;;30.63;20.30;;;2.20;99.90;;;;;;5093445;28;20218;-80
2021/12/11 09:47:06;;;;;;;27.63;19.57;;;2.30;99.90;;;;;;5093896;28;20501;-80
2021/12/11 09:49:37;;;;;;;21.67;18.00;;;2.30;99.90;;;;;;5093584;28;20213;-80
2021/12/11 09:52:16;;;;;;;24.47;19.23;;;2.30;99.90;;;;;;5093506;28;20267;-80
2021/12/11 09:54:47;;;;;;;25.40;19.63;;;2.30;99.90;;;;;;5093284;28;20227;-80
2021/12/11 09:57:20;;;;;;;26.20;19.37;;;2.30;99.90;;;;;;5093485;28;20292;-80
2021/12/11 09:59:52;;;;;;;26.70;19.37;;;2.40;99.90;;;;;;5092955;28;20284;-80
2021/12/11 10:02:25;;;;;;;24.20;18.90;;;2.40;99.90;;;;;;5093400;28;20205;-80
2021/12/11 10:05:00;;;;;;;27.97;19.07;;;2.40;99.90;;;;;;5093172;28;20232;-80
2021/12/11 10:07:38;;;;;;;22.98;17.65;;;2.40;99.90;;;;;;5093159;28;20315;-80
2021/12/11 10:10:14;;;;;;;27.63;19.60;;;2.50;99.90;;;;;;5093180;28;20208;-80
2021/12/11 10:12:46;;;;;;;26.37;19.33;;;2.50;99.90;;;;;;5093249;28;20273;-80
2021/12/11 10:15:21;;;;;;;28.80;19.93;;;2.50;99.90;;;;;;5092957;28;20216;-80
2021/12/11 10:17:52;;;;;;;24.77;19.47;;;2.50;99.90;;;;;;5093166;28;20195;-80
2021/12/11 10:20:27;;;;;;;28.70;18.98;;;2.60;99.90;;;;;;5092325;28;20250;-80
2021/12/11 10:22:57;;;;;;;25.90;17.83;;;2.60;99.90;;;;;;5093269;28;20286;-80
2021/12/11 10:25:30;;;;;;;33.77;21.23;;;2.60;99.90;;;;;;5092989;28;20201;-80
2021/12/11 10:28:01;;;;;;;26.80;19.07;;;2.60;99.90;;;;;;5093144;28;20207;-80
2021/12/11 10:30:35;;;;;;;28.87;19.00;;;2.60;99.90;;;;;;5092342;28;20224;-80
2021/12/11 10:33:08;;;;;;;26.88;18.95;;;2.60;99.90;;;;;;5092917;28;20235;-80
2021/12/11 10:35:41;;;;;;;29.67;20.23;;;2.60;99.90;;;;;;5092946;28;20239;-80
2021/12/11 10:38:10;;;;;;;27.27;20.55;;;2.70;99.90;;;;;;5093061;28;20204;-80
2021/12/11 10:40:43;;;;;;;26.63;19.53;;;2.70;99.90;;;;;;5091840;28;20255;-80
2021/12/11 10:43:15;;;;;;;28.95;20.30;;;2.70;99.90;;;;;;5092585;28;20227;-88
2021/12/11 10:45:45;;;;;;;24.60;18.77;;;2.70;99.90;;;;;;5092726;28;20315;-88
2021/12/11 10:48:19;;;;;;;39.20;19.60;;;2.70;99.90;;;;;;5093023;28;20219;-88
2021/12/11 10:50:51;;;;;;;28.88;19.70;;;2.70;99.90;;;;;;5093265;28;20258;-88
2021/12/11 10:53:25;;;;;;;24.57;18.70;;;2.80;99.90;;;;;;5097620;28;20222;-89
2021/12/11 10:55:55;;;;;;;31.63;20.83;;;2.80;99.90;;;;;;5092863;28;20302;-80
2021/12/11 10:58:27;;;;;;;30.02;19.08;;;2.80;99.90;;;;;;5092490;28;20220;-80
2021/12/11 11:01:00;;;;;;;22.00;17.13;;;2.80;99.90;;;;;;5092176;28;20251;-80
2021/12/11 11:03:31;;;;;;;25.47;17.07;;;2.80;99.90;;;;;;5092562;28;20209;-80
2021/12/11 11:06:00;;;;;;;28.17;19.10;;;2.90;99.90;;;;;;5092420;28;20224;-80
2021/12/11 11:08:29;;;;;;;22.27;18.30;;;2.80;99.90;;;;;;5094625;28;20210;-81
2021/12/11 11:11:03;;;;;;;25.45;18.00;;;2.80;99.90;;;;;;5096212;28;20196;-81
2021/12/11 11:13:31;;;;;;;25.30;18.73;;;2.80;99.90;;;;;;5095434;28;20288;-81
2021/12/11 11:16:01;;;;;;;22.30;17.25;;;2.90;99.90;;;;;;5096824;28;20220;-81
2021/12/11 11:18:30;;;;;;;22.50;17.02;;;2.90;99.90;;;;;;5096598;28;20238;-81
2021/12/11 11:21:04;;;;;;;37.17;17.80;;;2.90;99.90;;;;;;5095645;28;20308;-81
2021/12/11 11:23:33;;;;;;;25.10;19.00;;;3.00;99.90;;;;;;5096463;28;20228;-80
2021/12/11 11:26:06;;;;;;;24.52;19.05;;;3.00;99.90;;;;;;5096411;28;20235;-80
2021/12/11 11:28:35;;;;;;;27.23;19.48;;;3.10;99.90;;;;;;5096367;28;20287;-80
2021/12/11 11:31:08;;;;;;;20.55;17.73;;;3.10;99.90;;;;;;5096391;28;20283;-80
2021/12/11 11:33:38;;;;;;;23.88;18.30;;;3.10;99.90;;;;;;5096272;28;20268;-80
2021/12/11 11:36:10;;;;;;;22.80;17.48;;;3.10;99.90;;;;;;5096164;28;20250;-80
2021/12/11 11:38:44;;;;;;;28.60;19.30;;;3.20;99.90;;;;;;5095827;28;20235;-80
2021/12/11 11:41:18;;;;;;;28.45;18.92;;;3.20;99.90;;;;;;5095569;28;20316;-80
2021/12/11 11:43:48;;;;;;;31.17;20.05;;;3.10;99.90;;;;;;5096130;28;20200;-80
2021/12/11 11:46:19;;;;;;;32.00;18.58;;;3.10;99.90;;;;;;5095805;28;20251;-80
2021/12/11 11:48:52;;;;;;;40.35;21.90;;;3.10;99.90;;;;;;5095624;28;20193;-80
2021/12/11 11:51:24;;;;;;;28.98;17.08;;;3.20;99.90;;;;;;5096048;28;20283;-80
2021/12/11 11:53:53;;;;;;;23.13;18.00;;;3.20;99.90;;;;;;5096173;28;20208;-80
2021/12/11 11:56:30;;;;;;;23.35;17.33;;;3.20;99.90;;;;;;5095840;28;20239;-80
2021/12/11 11:58:59;;;;;;;23.38;18.00;;;3.30;99.90;;;;;;5095331;28;20232;-80
2021/12/11 12:01:33;;;;;;;26.98;18.00;;;3.40;99.90;;;;;;5095238;28;20225;-81
2021/12/11 12:04:02;;;;;;;20.75;16.75;;;3.30;99.90;;;;;;5095934;28;20267;-80
2021/12/11 12:06:35;;;;;;;20.77;16.92;;;3.20;99.90;;;;;;5095486;28;20242;-88
2021/12/11 12:09:07;;;;;;;29.55;16.58;;;3.20;99.90;;;;;;5095197;28;20208;-80
2021/12/11 12:11:39;;;;;;;29.48;17.80;;;3.40;99.90;;;;;;5094531;28;20312;-80
2021/12/11 12:14:10;;;;;;;22.35;17.65;;;3.60;99.90;;;;;;5095286;28;20289;-80
2021/12/11 12:16:44;;;;;;;20.17;16.73;;;3.80;99.90;;;;;;5095898;28;20297;-80
2021/12/11 12:19:13;;;;;;;27.88;15.45;;;3.90;99.90;;;;;;5093542;28;20205;-80
2021/12/11 12:21:45;;;;;;;27.50;17.65;;;4.00;99.90;;;;;;5094984;28;20303;-81
2021/12/11 12:24:14;;;;;;;19.65;16.25;;;4.00;99.90;;;;;;5095417;28;20228;-81
2021/12/11 12:26:43;;;;;;;20.13;16.80;;;4.00;99.90;;;;;;5095308;28;20247;-80
2021/12/11 12:29:14;;;;;;;21.40;14.98;;;3.90;99.90;;;;;;5094938;28;20204;-81
2021/12/11 12:31:48;;;;;;;20.42;16.38;;;3.90;99.90;;;;;;5095188;28;20239;-81
2021/12/11 12:34:17;;;;;;;23.50;19.08;;;3.90;99.90;;;;;;5094933;28;20206;-81
2021/12/11 12:36:45;;;;;;;22.90;15.85;;;3.90;99.90;;;;;;5094839;28;20303;-81
2021/12/11 12:39:21;;;;;;;20.02;15.45;;;3.90;99.90;;;;;;5094154;28;20207;-80
2021/12/11 12:42:04;;;;;;;22.70;16.60;;;3.90;99.90;;;;;;5094667;28;20303;-80
2021/12/11 12:44:37;;;;;;;21.63;15.95;;;3.80;99.90;;;;;;5094845;28;20201;-81
2021/12/11 12:47:12;;;;;;;21.38;15.63;;;3.70;99.90;;;;;;5094834;28;20224;-81
2021/12/11 12:49:49;;;;;;;18.35;14.40;;;3.70;99.90;;;;;;5094226;28;20222;-81
2021/12/11 12:52:20;;;;;;;20.65;16.20;;;3.70;99.90;;;;;;5095122;28;20192;-81
2021/12/11 12:54:49;;;;;;;23.48;15.55;;;3.60;99.90;;;;;;5095017;28;20279;-81
2021/12/11 12:57:21;;;;;;;17.85;14.25;;;3.60;99.90;;;;;;5094317;28;20312;-81
2021/12/11 12:59:59;;;;;;;20.73;14.95;;;3.50;99.90;;;;;;5094356;28;20257;-81
2021/12/11 13:02:32;;;;;;;21.52;15.63;;;3.50;99.90;;;;;;5094535;28;20224;-81